Aeroporto :
LOGIN :

Iscrizione | Disclaimer

   EN    FR    IT 

 










Sommario :    VFR   VFR Marginale   IFR   IFR Intensivo   IFR Molto Intensivo
Visibilità : 
Base nubi : 
>= 8 km
>= 3000ft
5 / 8 km
1000 / 3000 ft
1500m / 5 km
500 / 1000 ft
800 / 1500m
200 / 500 ft
< 800m
< 200 ft
Simboli :   Temporali  Nebbia  Neve Forte  Precipitazioni Forti  Vento > 20 kt
SIGMETs :   Varie  Temporali  Ghiacco  Turbolenza  Onda orograficha  Ceneri Vulcaniche







- Altitudine del aeroporto : 479 ft
- Codice IATA : DOL
- Carte del aeroporto


LFRG - Deauville

ULTIMO METAR :
  • 271200Z AUTO 06010KT 020V100 CAVOK 27/19 Q1024 NOSIG

METARs OBSOLETI :
  • 271130Z AUTO 06010KT 010V100 CAVOK 26/19 Q1024 NOSIG
  • 271100Z AUTO 07010KT 020V120 CAVOK 26/19 Q1024 TEMPO 07015G25KT
  • 271030Z AUTO 08010KT 040V120 9999 2600 NSC 25/19 Q1024 TEMPO 07015G25KT
  • 271000Z AUTO 07010KT 040V110 9999 1300 R30/P2000 NSC 25/19 Q1024 NOSIG
  • 270930Z AUTO 05009KT 360V090 CAVOK 24/18 Q1024 NOSIG

TAF TAF LFRG
Valido dal 27 a 12 ore il 27 a 21 ore UTC


271100Z 2712/2721 06010KT CAVOK
ATIS : +33 2 31 65 65 36
Nessun NOTAM noto per questo aeroporto.



MetMap, La meteo Aeronautica in un colpo d'occhio ! - Copyright ORBIFLY Dicembre 2007 - Disclaimer

ORBIFLY MET'MAP TEAM :

Programmazione e sviluppo : Alexandra Zaïnal
Concezione e sviluppo : Baudouin d'Aumeries
Co-Programmazione e sviluppo : Marc-Olivier Méhu
Supporto tecnico e logistico : Manuel Goepfert
Aiuto per la traduzione : Arnaldo La Scala

Contatto : metmap@orbifly.com




FONTI E CREDITI :

   NOAA